Rechercher aéroport 
image banner adimage banner adimage banner ad
image banner ad

CN67 - Rotorcraft Support Inc/Rsi

Situé à Fillmore, United States

ICAO - CN67, IATA -

Données fournies par Airmate  

Information générale

Coordonnées: N34°23'28" W118°55'59"
Élévation : 403 feet MSL.
 
Voir autres Aéroports à California

Données opérationnelles

Special qualification required
Heure actuelle UTC:
Heure actuelle locale:
Météo à : KCMA - Camarillo ( 25 km )
METAR: KCMA 231537Z 27003KT 2SM BR OVC002 16/14 A2993 RMK AO2 T01610139
TAF: KCMA 231500Z 2315/2412 29004KT 3/4SM BR OVC003 FM231600 VRB03KT P6SM BKN006 FM231700 24009KT P6SM SKC FM240300 VRB03KT P6SM SKC FM240600 VRB03KT 6SM BR OVC007
Voir NOTAMs / SUP AIP / TFR affectant cet aéroport [VIEW]
Fréquences de communication: [VIEW]

Pistes:

Coordonnées de l'aéroport

Adresse: Fillmore United States

Vue satellite de CN67